Aérodrome :
LOGIN :

S'inscrire | Disclaimer

   EN    FR    IT 

 










Légende :    VFR   VFR Marginal   IFR   IFR Intensif   IFR Très Intensif
Visi : 
Plafond : 
>= 8 km
>= 3000ft
5 à 8 km
1000 à 3000 ft
1500m à 5 km
500 à 1000 ft
800 à 1500m
200 à 500 ft
< 800m
< 200 ft
Symboles :   Orages  Brouillard  Fortes neiges  Fortes précipitations  Vent > 20 kt
SIGMETs :   Divers  Orages  Givrage  Turbulence  Onde Orograph.  Cendres Volcan.







- Altitude de l'aérodrome : -11 ft
- Code IATA : AMS


EHAM - Amsterdam Schiphol

DERNIER METAR :
  • 172255Z 31005KT 9999 FEW022 00/M01 Q1013 R06/CLRD// NOSIG

METARs EXPIRÉS :
  • 172225Z 29005KT 260V330 9999 FEW022 00/M01 Q1013 NOSIG
  • 172155Z 29005KT 260V330 9999 FEW008 FEW020CB 01/M01 Q1012 NOSIG
  • 172125Z 35013G28KT 310V040 9999 VCSH FEW006 FEW020CB 01/00 Q1012 RESHSN NOSIG
  • 172055Z 31009KT 280V350 9999 VCSH FEW020CB 02/M00 Q1011 TEMPO 34010G20KT 6000 SHRAGS
  • 172025Z 27006KT 9999 VCSH FEW020CB 01/M00 Q1011 TEMPO 34010G20KT 6000 SHRAGS

TAF TAF EHAM
Valide du 17 à 18h jusqu'au 19 à 00h UTC


171657Z 1718/1824 32008KT 9999 FEW025
TEMPO 1718/1722 34018G28KT 5000 SHRAGS SHRASN FEW012 SCT022CB BKN030
BECMG 1803/1806 20005KT
Pas de NOTAMs connus pour ce terrain.



MET'MAP, la Météo Aéronautique d'un coup d'oeil ! - Copyright ORBIFLY Décembre 2007 - Disclaimer

ORBIFLY MET'MAP TEAM :

Programmation & Développement : Alexandra Zaïnal
Conception & Développement : Baudouin d'Aumeries
Co-Programmation & Développement : Marc-Olivier Méhu
Soutien technique & logistique : Manuel Goepfert

Contact : metmap@orbifly.com




SOURCES & CREDITS :

   NOAA